createdAt,value
2022-09-15T00:00:01.696Z,100438.41
2022-09-15T00:02:28.119Z,100440.41
2022-09-15T00:04:54.462Z,100432.78
2022-09-15T00:07:20.740Z,100444.81
2022-09-15T00:09:48.325Z,100445.22
2022-09-15T00:12:14.594Z,100439.88
2022-09-15T00:14:40.876Z,100433.72
2022-09-15T00:17:07.227Z,100436.56
2022-09-15T00:19:33.555Z,100440.41
2022-09-15T00:21:59.823Z,100434.25
2022-09-15T00:24:26.182Z,100434.25
2022-09-15T00:26:53.792Z,100430.31
2022-09-15T00:29:20.059Z,100425.81
2022-09-15T00:31:46.323Z,100431.13
2022-09-15T00:34:13.181Z,100435.44
2022-09-15T00:36:39.600Z,100431.31
2022-09-15T00:39:06.216Z,100427.63
2022-09-15T00:41:32.490Z,100423.13
2022-09-15T00:44:01.040Z,100423.75
2022-09-15T00:46:28.664Z,100420.72
2022-09-15T00:48:57.990Z,100423.38
2022-09-15T00:51:27.239Z,100415.56
2022-09-15T00:53:53.623Z,100419.44
2022-09-15T00:56:20.024Z,100421.47
2022-09-15T00:58:48.372Z,100430.47
2022-09-15T01:01:16.404Z,100429.19
2022-09-15T01:03:43.100Z,100427.69
2022-09-15T01:06:12.067Z,100427.69
2022-09-15T01:08:41.170Z,100425.22
2022-09-15T01:11:07.570Z,100431.38
2022-09-15T01:13:33.841Z,100429.72
2022-09-15T01:18:55.486Z,100432.22
2022-09-15T01:21:26.382Z,100424.38
2022-09-15T01:24:11.107Z,100420.72
2022-09-15T01:26:55.084Z,100421.53
2022-09-15T01:29:47.684Z,100420.34
2022-09-15T01:32:18.473Z,100419.16
2022-09-15T01:34:50.881Z,100421.66
2022-09-15T01:37:20.950Z,100422.09
2022-09-15T01:39:47.971Z,100417.41
2022-09-15T01:42:16.037Z,100424.41
2022-09-15T01:44:45.306Z,100430.22
2022-09-15T01:47:13.111Z,100423.03
2022-09-15T01:49:42.202Z,100424.69
2022-09-15T01:52:08.486Z,100428.00
2022-09-15T01:54:36.882Z,100428.81
2022-09-15T01:57:03.420Z,100427.81
2022-09-15T01:59:29.739Z,100424.13
2022-09-15T02:01:59.404Z,100431.75
2022-09-15T02:04:28.318Z,100426.25
2022-09-15T02:06:58.119Z,100426.06
2022-09-15T02:09:27.447Z,100432.06
2022-09-15T02:11:57.163Z,100432.66
2022-09-15T02:14:32.039Z,100424.97
2022-09-15T02:16:59.692Z,100426.50
2022-09-15T02:19:29.183Z,100426.50
2022-09-15T02:21:59.102Z,100429.00
2022-09-15T02:24:29.307Z,100428.63
2022-09-15T02:26:55.672Z,100426.16
2022-09-15T02:29:23.290Z,100428.81
2022-09-15T02:31:51.328Z,100425.13
2022-09-15T02:34:21.356Z,100425.97
2022-09-15T02:36:49.275Z,100429.28
2022-09-15T02:39:18.209Z,100432.78
2022-09-15T02:41:44.515Z,100425.78
2022-09-15T02:44:10.896Z,100439.78
2022-09-15T02:46:37.570Z,100438.94
2022-09-15T02:49:03.862Z,100434.44
2022-09-15T02:51:31.474Z,100437.94
2022-09-15T02:53:57.766Z,100432.59
2022-09-15T02:56:24.618Z,100433.44
2022-09-15T02:58:50.902Z,100433.78
2022-09-15T03:01:17.408Z,100431.31
2022-09-15T03:03:44.466Z,100432.31
2022-09-15T03:06:11.146Z,100427.97
2022-09-15T03:08:38.806Z,100436.00
2022-09-15T03:11:05.059Z,100436.81
2022-09-15T03:13:31.316Z,100440.31
2022-09-15T03:15:57.649Z,100434.16
2022-09-15T03:18:23.968Z,100444.00
2022-09-15T03:20:55.698Z,100443.34
2022-09-15T03:23:21.988Z,100431.84
2022-09-15T03:25:49.588Z,100427.25
2022-09-15T03:28:15.834Z,100442.78
2022-09-15T03:30:42.100Z,100438.69
2022-09-15T03:33:08.363Z,100436.19
2022-09-15T03:35:34.643Z,100437.75
2022-09-15T03:38:00.914Z,100434.81
2022-09-15T03:40:27.244Z,100438.66
2022-09-15T03:42:54.932Z,100444.34
2022-09-15T03:45:21.210Z,100439.59
2022-09-15T03:47:47.469Z,100446.06
2022-09-15T03:50:13.743Z,100435.75
2022-09-15T03:52:40.011Z,100443.47
2022-09-15T03:55:06.561Z,100443.84
2022-09-15T03:57:32.828Z,100440.53
2022-09-15T04:00:00.453Z,100437.22
2022-09-15T04:02:26.795Z,100447.88
2022-09-15T04:04:53.148Z,100436.72
2022-09-15T04:07:19.426Z,100437.94
2022-09-15T04:09:45.695Z,100436.28
2022-09-15T04:12:11.980Z,100442.81
2022-09-15T04:14:38.277Z,100445.28
2022-09-15T04:17:05.927Z,100429.47
2022-09-15T04:19:32.182Z,100446.31
2022-09-15T04:21:58.464Z,100436.63
2022-09-15T04:24:24.739Z,100433.78
2022-09-15T04:26:50.995Z,100444.09
2022-09-15T04:29:17.274Z,100444.03
2022-09-15T04:31:43.759Z,100443.09
2022-09-15T04:34:11.449Z,100449.09
2022-09-15T04:36:38.098Z,100454.38
2022-09-15T04:39:04.987Z,100454.66
2022-09-15T04:41:31.258Z,100455.19
2022-09-15T04:43:57.507Z,100463.38
2022-09-15T04:46:23.941Z,100454.53
2022-09-15T04:48:50.236Z,100463.09
2022-09-15T04:51:19.206Z,100454.38
2022-09-15T04:53:45.844Z,100457.22
2022-09-15T04:56:14.131Z,100464.38
2022-09-15T04:58:41.258Z,100468.91
2022-09-15T05:01:08.566Z,100460.06
2022-09-15T05:03:35.672Z,100460.25
2022-09-15T05:06:01.918Z,100455.91
2022-09-15T05:08:29.596Z,100456.56
2022-09-15T05:10:58.588Z,100456.38
2022-09-15T05:13:24.866Z,100460.53
2022-09-15T05:15:51.185Z,100457.03
2022-09-15T05:18:17.625Z,100454.94
2022-09-15T05:20:43.967Z,100458.25
2022-09-15T05:23:10.245Z,100464.16
2022-09-15T05:25:37.862Z,100454.50
2022-09-15T05:28:04.134Z,100460.66
2022-09-15T05:30:38.620Z,100464.78
2022-09-15T05:33:05.122Z,100460.25
2022-09-15T05:35:31.400Z,100465.25
2022-09-15T05:37:57.668Z,100473.25
2022-09-15T05:40:23.964Z,100473.91
2022-09-15T05:42:51.584Z,100472.06
2022-09-15T05:45:17.864Z,100478.88
2022-09-15T05:47:44.144Z,100483.81
2022-09-15T05:50:10.427Z,100478.31
2022-09-15T05:52:36.692Z,100478.97
2022-09-15T05:55:03.098Z,100473.25
2022-09-15T05:57:29.358Z,100472.09
2022-09-15T05:59:56.956Z,100474.53
2022-09-15T06:02:23.310Z,100471.34
2022-09-15T06:04:49.619Z,100470.13
2022-09-15T06:07:16.222Z,100470.59
2022-09-15T06:09:42.474Z,100470.22
2022-09-15T06:12:08.722Z,100475.19
2022-09-15T06:14:34.994Z,100487.97
2022-09-15T06:17:02.610Z,100489.63
2022-09-15T06:19:28.892Z,100489.44
2022-09-15T06:21:55.142Z,100495.63
2022-09-15T06:24:21.410Z,100500.31
2022-09-15T06:26:47.668Z,100507.47
2022-09-15T06:29:13.939Z,100508.53
2022-09-15T06:31:40.282Z,100515.50
2022-09-15T06:34:07.916Z,100511.81
2022-09-15T06:36:36.115Z,100516.78
2022-09-15T06:39:02.393Z,100519.09
2022-09-15T06:41:38.276Z,100523.88
2022-09-15T06:44:09.343Z,100522.13
2022-09-15T06:46:36.152Z,100520.94
2022-09-15T06:49:02.556Z,100526.53
2022-09-15T06:51:30.183Z,100535.66
2022-09-15T06:53:56.639Z,100525.06
2022-09-15T06:56:23.439Z,100533.16
2022-09-15T06:58:49.852Z,100533.25
2022-09-15T07:01:19.918Z,100531.84
2022-09-15T07:03:46.335Z,100533.78
2022-09-15T07:06:12.970Z,100537.38
2022-09-15T07:08:40.894Z,100541.34
2022-09-15T07:11:07.468Z,100546.09
2022-09-15T07:13:33.730Z,100551.91
2022-09-15T07:16:01.190Z,100551.34
2022-09-15T07:18:27.542Z,100549.75
2022-09-15T07:20:58.291Z,100556.63
2022-09-15T07:23:24.538Z,100559.06
2022-09-15T07:25:52.176Z,100564.78
2022-09-15T07:28:18.460Z,100570.94
2022-09-15T07:30:44.743Z,100565.78
2022-09-15T07:33:12.051Z,100569.94
2022-09-15T07:35:41.052Z,100575.16
2022-09-15T07:38:07.322Z,100576.78
2022-09-15T07:40:33.639Z,100582.78
2022-09-15T07:43:01.397Z,100574.66
2022-09-15T07:45:27.712Z,100574.09
2022-09-15T07:47:54.833Z,100573.78
2022-09-15T07:50:21.152Z,100576.31
2022-09-15T07:52:47.435Z,100580.84
2022-09-15T07:55:13.886Z,100581.66
2022-09-15T07:57:40.266Z,100580.47
2022-09-15T08:00:08.619Z,100581.34
2022-09-15T08:02:34.883Z,100584.75
2022-09-15T08:05:01.153Z,100593.47
2022-09-15T08:07:27.424Z,100584.13
2022-09-15T08:09:53.712Z,100592.97
2022-09-15T08:12:19.974Z,100597.59
2022-09-15T08:14:46.257Z,100599.13
2022-09-15T08:17:13.874Z,100599.63
2022-09-15T08:19:40.195Z,100601.25
2022-09-15T08:22:06.467Z,100602.50
2022-09-15T08:24:32.781Z,100606.25
2022-09-15T08:26:59.035Z,100609.56
2022-09-15T08:29:25.351Z,100614.28
2022-09-15T08:31:51.636Z,100621.34
2022-09-15T08:34:19.227Z,100611.63
2022-09-15T08:36:45.478Z,100624.00
2022-09-15T08:39:11.763Z,100624.28
2022-09-15T08:41:39.896Z,100624.06
2022-09-15T08:44:12.935Z,100631.28
2022-09-15T08:46:42.018Z,100633.31
2022-09-15T08:49:12.271Z,100632.94
2022-09-15T08:51:43.235Z,100631.13
2022-09-15T08:54:12.620Z,100630.13
2022-09-15T08:56:40.535Z,100636.97
2022-09-15T08:59:09.228Z,100643.84
2022-09-15T09:01:41.173Z,100649.41
2022-09-15T09:04:28.275Z,100656.84
2022-09-15T09:07:01.874Z,100658.56
2022-09-15T09:09:34.387Z,100663.13
2022-09-15T09:12:15.931Z,100659.03
2022-09-15T09:14:47.897Z,100665.91
2022-09-15T09:17:21.682Z,100665.31
2022-09-15T09:19:57.561Z,100662.38
2022-09-15T09:22:27.161Z,100661.72
2022-09-15T09:24:55.122Z,100657.75
2022-09-15T09:27:23.824Z,100662.91
2022-09-15T09:29:53.625Z,100664.88
2022-09-15T09:32:22.215Z,100669.84
2022-09-15T09:34:54.027Z,100661.28
2022-09-15T09:37:20.309Z,100663.94
2022-09-15T09:39:47.998Z,100663.00
2022-09-15T09:42:15.322Z,100659.75
2022-09-15T09:44:41.619Z,100666.97
2022-09-15T09:47:07.926Z,100665.38
2022-09-15T09:49:35.119Z,100665.16
2022-09-15T09:52:01.623Z,100663.75
2022-09-15T09:54:28.587Z,100670.41
2022-09-15T09:56:56.981Z,100669.56
2022-09-15T09:59:31.115Z,100661.31
2022-09-15T10:02:12.293Z,100669.38
2022-09-15T10:04:39.200Z,100659.69
2022-09-15T10:07:05.782Z,100663.81
2022-09-15T10:09:33.481Z,100654.13
2022-09-15T10:12:02.151Z,100660.13
2022-09-15T10:14:29.434Z,100657.63
2022-09-15T10:17:00.195Z,100654.75
2022-09-15T10:19:26.880Z,100656.59
2022-09-15T10:21:53.488Z,100655.53
2022-09-15T10:24:35.910Z,100655.53
2022-09-15T10:27:16.905Z,100652.84
2022-09-15T10:29:43.206Z,100654.72
2022-09-15T10:32:16.352Z,100657.38
2022-09-15T10:34:42.663Z,100667.66
2022-09-15T10:37:13.146Z,100658.31
2022-09-15T10:39:43.948Z,100661.59
2022-09-15T10:42:17.156Z,100670.13
2022-09-15T10:44:47.535Z,100669.97
2022-09-15T10:47:20.723Z,100665.38
2022-09-15T10:49:56.466Z,100667.38
2022-09-15T10:52:29.426Z,100659.69
2022-09-15T10:55:03.548Z,100660.25
2022-09-15T10:57:42.466Z,100667.88
2022-09-15T11:00:10.589Z,100661.06
2022-09-15T11:02:55.567Z,100681.50
2022-09-15T11:05:31.706Z,100674.47
2022-09-15T11:08:05.211Z,100683.19
2022-09-15T11:10:34.596Z,100675.75
2022-09-15T11:13:07.267Z,100683.38
2022-09-15T11:15:42.025Z,100682.06
2022-09-15T11:18:16.755Z,100680.66
2022-09-15T11:20:51.065Z,100679.47
2022-09-15T11:23:19.826Z,100677.63
2022-09-15T11:25:48.561Z,100676.84
2022-09-15T11:28:19.662Z,100679.59
2022-09-15T11:30:50.960Z,100684.28
2022-09-15T11:33:19.914Z,100691.53
2022-09-15T11:35:48.209Z,100695.47
2022-09-15T11:38:21.235Z,100697.69
2022-09-15T11:40:50.219Z,100703.66
2022-09-15T11:43:20.544Z,100706.88
2022-09-15T11:45:49.617Z,100699.91
2022-09-15T11:48:17.941Z,100703.25
2022-09-15T11:50:46.128Z,100707.09
2022-09-15T11:53:15.230Z,100713.34
2022-09-15T11:55:43.390Z,100705.72
2022-09-15T11:58:15.514Z,100712.66
2022-09-15T12:00:51.023Z,100703.75
2022-09-15T12:03:20.072Z,100699.63
2022-09-15T12:05:48.123Z,100694.72
2022-09-15T12:08:16.744Z,100694.63
2022-09-15T12:10:44.736Z,100689.28
2022-09-15T12:13:15.323Z,100692.44
2022-09-15T12:15:42.452Z,100684.69
2022-09-15T12:18:34.354Z,100680.59
2022-09-15T12:21:04.219Z,100683.31
2022-09-15T12:23:33.290Z,100677.38
2022-09-15T12:26:05.788Z,100677.19
2022-09-15T12:28:38.024Z,100677.03
2022-09-15T12:31:15.203Z,100675.16
2022-09-15T12:33:45.931Z,100674.34
2022-09-15T12:36:30.803Z,100676.66
2022-09-15T12:38:57.767Z,100679.13
2022-09-15T12:41:24.279Z,100679.97
2022-09-15T12:43:52.053Z,100678.75
2022-09-15T12:46:18.447Z,100680.22
2022-09-15T12:48:47.523Z,100683.72
2022-09-15T12:51:20.967Z,100690.34
2022-09-15T12:53:49.553Z,100682.47
2022-09-15T12:56:22.306Z,100680.38
2022-09-15T12:58:49.518Z,100677.91
2022-09-15T13:01:30.038Z,100682.66
2022-09-15T13:04:22.880Z,100678.31
2022-09-15T13:07:05.907Z,100692.38
2022-09-15T13:09:43.051Z,100689.66
2022-09-15T13:12:10.586Z,100685.13
2022-09-15T13:14:39.572Z,100679.97
2022-09-15T13:17:11.107Z,100681.22
2022-09-15T13:19:40.525Z,100678.75
2022-09-15T13:22:12.723Z,100677.47
2022-09-15T13:24:44.067Z,100679.34
2022-09-15T13:27:11.807Z,100674.00
2022-09-15T13:29:43.342Z,100680.78
2022-09-15T13:32:16.551Z,100673.13
2022-09-15T13:35:09.407Z,100669.59
2022-09-15T13:38:12.575Z,100662.97
2022-09-15T13:40:45.235Z,100668.81
2022-09-15T13:43:26.409Z,100665.28
2022-09-15T13:45:57.805Z,100667.56
2022-09-15T13:48:38.423Z,100666.31
2022-09-15T13:51:10.263Z,100663.19
2022-09-15T13:53:43.185Z,100666.69
2022-09-15T13:56:11.538Z,100668.34
2022-09-15T13:59:01.024Z,100670.00
2022-09-15T14:01:28.342Z,100667.31
2022-09-15T14:03:56.395Z,100667.31
2022-09-15T14:06:24.420Z,100668.34
2022-09-15T14:08:53.969Z,100672.91
2022-09-15T14:11:28.731Z,100662.97
2022-09-15T14:13:55.626Z,100665.88
2022-09-15T14:16:23.130Z,100664.63
2022-09-15T14:18:49.872Z,100664.41
2022-09-15T14:21:17.486Z,100660.88
2022-09-15T14:23:45.701Z,100675.34
2022-09-15T14:26:14.389Z,100668.72
2022-09-15T14:28:41.149Z,100671.00
2022-09-15T14:31:07.525Z,100666.66
2022-09-15T14:33:37.955Z,100663.94
2022-09-15T14:36:11.891Z,100665.41
2022-09-15T14:38:38.150Z,100664.38
2022-09-15T14:41:04.451Z,100672.38
2022-09-15T14:43:33.429Z,100669.84
2022-09-15T14:46:09.583Z,100677.06
2022-09-15T14:48:35.867Z,100680.84
2022-09-15T14:51:04.567Z,100680.84
2022-09-15T14:53:33.589Z,100687.75
2022-09-15T14:56:07.044Z,100677.59
2022-09-15T14:58:37.280Z,100689.81
2022-09-15T15:01:04.776Z,100681.16
2022-09-15T15:03:34.135Z,100685.44
2022-09-15T15:06:25.313Z,100689.84
2022-09-15T15:08:52.061Z,100686.78
2022-09-15T15:11:18.655Z,100689.03
2022-09-15T15:13:47.986Z,100684.94
2022-09-15T15:16:18.820Z,100690.94
2022-09-15T15:18:45.183Z,100685.38
2022-09-15T15:21:32.217Z,100684.31
2022-09-15T15:23:58.617Z,100686.59
2022-09-15T15:26:26.109Z,100701.28
2022-09-15T15:28:53.730Z,100693.03
2022-09-15T15:31:21.713Z,100696.34
2022-09-15T15:33:49.124Z,100685.56
2022-09-15T15:36:20.164Z,100700.88
2022-09-15T15:38:48.660Z,100702.34
2022-09-15T15:41:18.890Z,100702.53
2022-09-15T15:43:55.749Z,100698.81
2022-09-15T15:46:36.896Z,100704.41
2022-09-15T15:49:05.653Z,100703.97
2022-09-15T15:51:31.898Z,100704.56
2022-09-15T15:53:58.190Z,100711.78
2022-09-15T15:56:24.463Z,100714.25
2022-09-15T15:58:50.766Z,100714.69
2022-09-15T16:01:18.452Z,100715.88
2022-09-15T16:03:44.763Z,100721.25
2022-09-15T16:06:11.257Z,100721.69
2022-09-15T16:08:38.751Z,100727.63
2022-09-15T16:11:08.049Z,100728.22
2022-09-15T16:13:34.448Z,100721.63
2022-09-15T16:16:01.443Z,100721.34
2022-09-15T16:18:29.174Z,100729.19
2022-09-15T16:20:55.467Z,100727.53
2022-09-15T16:23:22.771Z,100730.22
2022-09-15T16:25:52.437Z,100727.19
2022-09-15T16:28:18.721Z,100729.63
2022-09-15T16:30:45.033Z,100731.50
2022-09-15T16:33:13.096Z,100730.59
2022-09-15T16:35:42.899Z,100730.28
2022-09-15T16:38:09.421Z,100733.09
2022-09-15T16:40:35.754Z,100737.63
2022-09-15T16:43:02.286Z,100729.59
2022-09-15T16:45:34.049Z,100730.97
2022-09-15T16:48:03.428Z,100734.69
2022-09-15T16:50:30.142Z,100735.28
2022-09-15T16:52:58.240Z,100739.81
2022-09-15T16:55:31.244Z,100744.56
2022-09-15T16:57:57.651Z,100741.44
2022-09-15T17:00:23.998Z,100742.47
2022-09-15T17:02:50.318Z,100746.19
2022-09-15T17:05:19.747Z,100743.69
2022-09-15T17:07:46.035Z,100749.25
2022-09-15T17:10:13.771Z,100741.63
2022-09-15T17:12:40.070Z,100749.47
2022-09-15T17:15:17.591Z,100748.75
2022-09-15T17:17:43.856Z,100737.97
2022-09-15T17:20:10.133Z,100740.00
2022-09-15T17:22:36.378Z,100738.53
2022-09-15T17:25:04.936Z,100738.06
2022-09-15T17:27:32.546Z,100741.84
2022-09-15T17:29:58.819Z,100746.13
2022-09-15T17:32:25.098Z,100745.13
2022-09-15T17:34:51.551Z,100745.72
2022-09-15T17:37:17.999Z,100748.53
2022-09-15T17:39:44.276Z,100745.81
2022-09-15T17:42:10.543Z,100737.84
2022-09-15T17:44:38.127Z,100741.75
2022-09-15T17:47:04.466Z,100748.53
2022-09-15T17:49:30.728Z,100737.66
2022-09-15T17:51:57.003Z,100743.75
2022-09-15T17:54:23.268Z,100749.19
2022-09-15T17:56:49.550Z,100744.53
2022-09-15T17:59:16.392Z,100743.00
2022-09-15T18:01:44.134Z,100751.56
2022-09-15T18:04:11.120Z,100744.75
2022-09-15T18:06:37.598Z,100744.09
2022-09-15T18:09:04.559Z,100749.44
2022-09-15T18:11:30.869Z,100753.53
2022-09-15T18:13:57.321Z,100753.22
2022-09-15T18:16:23.670Z,100755.41
2022-09-15T18:18:51.316Z,100751.19
2022-09-15T18:21:22.519Z,100757.22
2022-09-15T18:23:48.793Z,100760.59
2022-09-15T18:26:15.115Z,100764.28
2022-09-15T18:28:41.385Z,100765.88
2022-09-15T18:31:09.340Z,100774.81
2022-09-15T18:33:35.618Z,100772.63
2022-09-15T18:36:05.823Z,100781.63
2022-09-15T18:38:32.128Z,100775.06
2022-09-15T18:40:58.411Z,100774.75
2022-09-15T18:43:25.362Z,100778.13
2022-09-15T18:45:51.675Z,100787.06
2022-09-15T18:48:18.009Z,100785.03
2022-09-15T18:50:44.660Z,100788.34
2022-09-15T18:53:12.706Z,100782.59
2022-09-15T18:55:40.064Z,100787.81
2022-09-15T18:58:06.319Z,100793.25
2022-09-15T19:00:32.600Z,100788.91
2022-09-15T19:02:59.702Z,100797.25
2022-09-15T19:05:26.455Z,100798.44
2022-09-15T19:07:52.869Z,100797.34
2022-09-15T19:10:20.723Z,100802.44
2022-09-15T19:12:47.031Z,100803.53
2022-09-15T19:15:14.203Z,100807.44
2022-09-15T19:17:40.836Z,100810.00
2022-09-15T19:20:08.350Z,100803.28
2022-09-15T19:22:35.026Z,100806.78
2022-09-15T19:25:01.312Z,100815.41
2022-09-15T19:27:28.918Z,100807.50
2022-09-15T19:29:55.186Z,100818.63
2022-09-15T19:32:21.827Z,100817.00
2022-09-15T19:34:48.638Z,100822.06
2022-09-15T19:37:18.695Z,100810.72
2022-09-15T19:39:45.347Z,100812.81
2022-09-15T19:42:12.143Z,100806.63
2022-09-15T19:44:40.338Z,100810.38
2022-09-15T19:47:06.608Z,100817.75
2022-09-15T19:49:32.878Z,100811.28
2022-09-15T19:51:59.142Z,100811.63
2022-09-15T19:54:26.522Z,100808.97
2022-09-15T19:56:52.855Z,100819.88
2022-09-15T19:59:19.261Z,100811.47
2022-09-15T20:01:47.037Z,100812.78
2022-09-15T20:06:57.176Z,100819.78
2022-09-15T20:09:23.436Z,100816.56
2022-09-15T20:11:49.669Z,100816.97
2022-09-15T20:14:15.902Z,100809.03
2022-09-15T20:16:42.236Z,100821.66
2022-09-15T20:19:09.982Z,100827.78
2022-09-15T20:21:52.999Z,100823.50
2022-09-15T20:24:20.223Z,100824.69
2022-09-15T20:26:46.535Z,100806.59
2022-09-15T20:29:12.820Z,100820.28
2022-09-15T20:31:39.098Z,100822.38
2022-09-15T20:34:05.335Z,100827.22
2022-09-15T20:36:34.034Z,100822.06
2022-09-15T20:39:01.029Z,100840.34
2022-09-15T20:41:27.770Z,100840.88
2022-09-15T20:43:54.200Z,100834.94
2022-09-15T20:46:21.674Z,100838.59
2022-09-15T20:48:48.203Z,100838.59
2022-09-15T20:51:15.341Z,100844.81
2022-09-15T20:53:43.863Z,100852.34
2022-09-15T20:56:10.522Z,100853.22
2022-09-15T20:58:37.079Z,100849.09
2022-09-15T21:01:04.829Z,100851.09
2022-09-15T21:03:31.467Z,100852.09
2022-09-15T21:06:01.455Z,100856.28
2022-09-15T21:08:27.739Z,100863.91
2022-09-15T21:10:55.647Z,100855.25
2022-09-15T21:13:22.110Z,100865.91
2022-09-15T21:15:54.763Z,100865.19
2022-09-15T21:18:21.062Z,100871.97
2022-09-15T21:20:53.365Z,100873.31
2022-09-15T21:23:19.624Z,100866.69
2022-09-15T21:25:45.896Z,100865.41
2022-09-15T21:28:13.517Z,100873.69
2022-09-15T21:30:39.773Z,100871.69
2022-09-15T21:33:06.054Z,100869.53
2022-09-15T21:35:34.028Z,100874.81
2022-09-15T21:38:00.822Z,100873.84
2022-09-15T21:40:27.216Z,100871.41
2022-09-15T21:42:53.495Z,100865.75
2022-09-15T21:45:21.162Z,100857.44
2022-09-15T21:47:47.442Z,100863.09
2022-09-15T21:50:13.827Z,100859.59
2022-09-15T21:52:40.385Z,100852.59
2022-09-15T21:55:06.883Z,100854.44
2022-09-15T21:57:33.164Z,100856.28
2022-09-15T21:59:59.426Z,100858.94
2022-09-15T22:02:27.089Z,100863.44
2022-09-15T22:04:53.388Z,100856.78
2022-09-15T22:07:19.685Z,100860.97
2022-09-15T22:09:46.437Z,100836.97
2022-09-15T22:12:12.729Z,100835.94
2022-09-15T22:14:38.996Z,100842.44
2022-09-15T22:17:05.313Z,100852.28
2022-09-15T22:19:32.913Z,100856.44
2022-09-15T22:21:59.199Z,100858.59
2022-09-15T22:24:25.501Z,100865.44
2022-09-15T22:26:51.776Z,100880.63
2022-09-15T22:29:18.065Z,100874.13
2022-09-15T22:31:44.359Z,100868.44
2022-09-15T22:34:10.661Z,100873.78
2022-09-15T22:36:38.282Z,100872.28
2022-09-15T22:39:05.263Z,100862.63
2022-09-15T22:41:32.588Z,100862.78
2022-09-15T22:43:58.870Z,100859.44
2022-09-15T22:46:25.491Z,100862.13
2022-09-15T22:48:51.773Z,100860.47
2022-09-15T22:51:18.060Z,100865.31
2022-09-15T22:53:45.685Z,100863.31
2022-09-15T22:56:12.955Z,100864.00
2022-09-15T22:58:41.430Z,100856.88
2022-09-15T23:01:08.734Z,100862.69
2022-09-15T23:03:35.042Z,100857.69
2022-09-15T23:06:02.035Z,100857.72
2022-09-15T23:08:28.413Z,100856.56
2022-09-15T23:11:01.430Z,100852.56
2022-09-15T23:13:27.705Z,100843.41
2022-09-15T23:15:54.017Z,100846.09
2022-09-15T23:18:20.327Z,100846.59
2022-09-15T23:20:46.599Z,100841.25
2022-09-15T23:23:12.899Z,100842.25
2022-09-15T23:25:39.170Z,100840.59
2022-09-15T23:28:06.804Z,100845.25
2022-09-15T23:30:33.076Z,100841.28
2022-09-15T23:32:59.354Z,100834.28
2022-09-15T23:35:25.649Z,100845.94
2022-09-15T23:37:51.915Z,100839.59
2022-09-15T23:40:18.213Z,100841.28
2022-09-15T23:42:44.531Z,100838.59
2022-09-15T23:45:12.137Z,100842.94
2022-09-15T23:47:38.419Z,100839.59
2022-09-15T23:50:05.123Z,100836.09
2022-09-15T23:52:31.408Z,100836.78
2022-09-15T23:54:57.673Z,100842.94
2022-09-15T23:57:23.971Z,100835.44
2022-09-15T23:59:50.244Z,100834.28
